Time;durP1;ratioP1;P1;durP2;ratioP2;P2;SDS_P1;SDS_P2;PMS_P1;PMS_P2;Temp;Humidity;BMP_temperature;BMP_pressure;BME280_temperature;BME280_humidity;BME280_pressure;Samples;Min_cycle;Max_cycle;Signal;HPM_P1;HPM_P2
2022/07/30 00:02:24;;;;;;;9.23;8.00;;;;;;;;;;5096577;28;20524;-65
2022/07/30 00:04:52;;;;;;;10.30;8.13;;;;;;;;;;5094787;28;20480;-64
2022/07/30 00:07:19;;;;;;;14.00;9.00;;;;;;;;;;5096092;28;20546;-65
2022/07/30 00:09:46;;;;;;;8.70;7.43;;;;;;;;;;5096511;28;20535;-64
2022/07/30 00:12:13;;;;;;;11.33;7.30;;;;;;;;;;5096205;28;20970;-64
2022/07/30 00:14:41;;;;;;;10.53;7.43;;;;;;;;;;5096243;28;20463;-65
2022/07/30 00:17:09;;;;;;;12.13;7.57;;;;;;;;;;5096055;28;20495;-65
2022/07/30 00:19:36;;;;;;;9.40;7.30;;;;;;;;;;5096064;28;21045;-65
2022/07/30 00:22:04;;;;;;;13.73;8.70;;;;;;;;;;5095985;28;20528;-64
2022/07/30 00:24:31;;;;;;;10.97;8.90;;;;;;;;;;5095549;28;21060;-65
2022/07/30 00:26:58;;;;;;;8.37;7.47;;;;;;;;;;5095554;28;20493;-65
2022/07/30 00:29:26;;;;;;;7.80;7.10;;;;;;;;;;5096422;28;20522;-64
2022/07/30 00:31:53;;;;;;;10.70;7.17;;;;;;;;;;5095779;28;20432;-65
2022/07/30 00:34:21;;;;;;;9.40;7.83;;;;;;;;;;5095865;28;20441;-64
2022/07/30 00:36:49;;;;;;;8.30;7.60;;;;;;;;;;5095705;28;20545;-65
2022/07/30 00:39:16;;;;;;;9.10;7.70;;;;;;;;;;5095780;28;20452;-65
2022/07/30 00:41:57;;;;;;;8.80;7.63;;;;;;;;;;5096040;28;20779;-65
2022/07/30 00:44:24;;;;;;;8.20;7.37;;;;;;;;;;5095550;28;20509;-65
2022/07/30 00:46:51;;;;;;;9.77;8.70;;;;;;;;;;5095489;28;20483;-65
2022/07/30 00:49:19;;;;;;;8.83;7.90;;;;;;;;;;5095257;28;20452;-65
2022/07/30 00:51:48;;;;;;;9.20;8.30;;;;;;;;;;5095413;28;20431;-65
2022/07/30 00:54:15;;;;;;;9.87;8.90;;;;;;;;;;5095579;28;20933;-65
2022/07/30 00:56:42;;;;;;;9.00;8.07;;;;;;;;;;5095011;28;20449;-65
2022/07/30 00:59:10;;;;;;;9.50;8.50;;;;;;;;;;5095354;28;20871;-65
2022/07/30 01:01:37;;;;;;;9.40;8.40;;;;;;;;;;5094909;28;20441;-65
2022/07/30 01:04:06;;;;;;;17.30;9.67;;;;;;;;;;5095182;28;20558;-66
2022/07/30 01:06:34;;;;;;;11.60;9.10;;;;;;;;;;5095376;28;20443;-65
2022/07/30 01:09:02;;;;;;;10.93;8.10;;;;;;;;;;5095282;28;20442;-65
2022/07/30 01:11:33;;;;;;;9.70;8.37;;;;;;;;;;5094808;28;20444;-65
2022/07/30 01:14:00;;;;;;;13.57;8.93;;;;;;;;;;5095206;28;20425;-65
2022/07/30 01:16:28;;;;;;;16.57;9.77;;;;;;;;;;5094291;28;20508;-65
2022/07/30 01:21:44;;;;;;;9.17;7.90;;;;;;;;;;5094800;28;20392;-66
2022/07/30 01:24:20;;;;;;;15.60;9.37;;;;;;;;;;5094729;28;20486;-64
2022/07/30 01:26:49;;;;;;;10.23;8.90;;;;;;;;;;5094833;28;20786;-66
2022/07/30 01:29:16;;;;;;;9.87;8.97;;;;;;;;;;5095199;28;20433;-65
2022/07/30 01:31:44;;;;;;;11.10;9.27;;;;;;;;;;5094817;28;20528;-65
2022/07/30 01:34:13;;;;;;;10.80;9.10;;;;;;;;;;5094663;28;20533;-65
2022/07/30 01:36:41;;;;;;;13.63;9.37;;;;;;;;;;5094676;28;20472;-65
2022/07/30 01:39:09;;;;;;;13.60;10.40;;;;;;;;;;5094531;28;20450;-65
2022/07/30 01:41:36;;;;;;;13.43;8.80;;;;;;;;;;5094220;28;20489;-65
2022/07/30 01:44:06;;;;;;;10.00;9.07;;;;;;;;;;5094024;28;20482;-65
2022/07/30 01:46:34;;;;;;;13.23;9.40;;;;;;;;;;5094488;28;20446;-65
2022/07/30 01:49:01;;;;;;;10.63;9.50;;;;;;;;;;5094019;28;21004;-65
2022/07/30 01:51:29;;;;;;;11.57;9.40;;;;;;;;;;5094377;28;20471;-65
2022/07/30 01:53:57;;;;;;;11.27;10.03;;;;;;;;;;5094350;28;20540;-65
2022/07/30 01:56:26;;;;;;;10.70;9.33;;;;;;;;;;5094427;28;20533;-65
2022/07/30 01:58:54;;;;;;;13.03;10.47;;;;;;;;;;5093889;28;20449;-64
2022/07/30 02:01:24;;;;;;;10.97;9.90;;;;;;;;;;5094535;28;21026;-65
2022/07/30 02:03:51;;;;;;;16.93;10.73;;;;;;;;;;5094233;28;20486;-65
2022/07/30 02:06:20;;;;;;;13.20;10.97;;;;;;;;;;5094200;28;20440;-65
2022/07/30 02:08:51;;;;;;;12.10;10.93;;;;;;;;;;5094067;28;20439;-65
2022/07/30 02:12:27;;;;;;;15.07;12.40;;;;;;;;;;5094217;28;20432;-64
2022/07/30 02:14:09;;;;;;;12.13;11.10;;;;;;;;;;5093656;28;20461;-65
2022/07/30 02:16:39;;;;;;;13.63;11.53;;;;;;;;;;5093711;28;21032;-65
2022/07/30 02:19:07;;;;;;;13.63;12.20;;;;;;;;;;5093535;28;20471;-65
2022/07/30 02:21:36;;;;;;;12.80;11.60;;;;;;;;;;5094107;28;20530;-65
2022/07/30 02:24:06;;;;;;;13.60;12.30;;;;;;;;;;5093659;28;20480;-65
2022/07/30 02:26:33;;;;;;;16.30;11.87;;;;;;;;;;5093510;28;20440;-65
2022/07/30 02:29:01;;;;;;;14.57;13.17;;;;;;;;;;5093042;28;20440;-64
2022/07/30 02:31:30;;;;;;;12.67;11.57;;;;;;;;;;5093792;28;20455;-64
2022/07/30 02:34:00;;;;;;;13.40;12.10;;;;;;;;;;5093398;28;20541;-65
2022/07/30 02:36:28;;;;;;;13.50;12.23;;;;;;;;;;5093786;28;20515;-65
2022/07/30 02:38:57;;;;;;;12.37;11.37;;;;;;;;;;5093316;28;20526;-64
2022/07/30 02:41:25;;;;;;;14.97;13.10;;;;;;;;;;5093358;28;20452;-65
2022/07/30 02:43:53;;;;;;;14.43;12.73;;;;;;;;;;5093522;28;20430;-65
2022/07/30 02:46:22;;;;;;;14.57;13.17;;;;;;;;;;5093682;28;20924;-64
2022/07/30 02:48:51;;;;;;;14.93;12.70;;;;;;;;;;5093210;28;20534;-65
2022/07/30 02:51:20;;;;;;;19.43;13.30;;;;;;;;;;5093237;28;20436;-65
2022/07/30 02:53:49;;;;;;;13.27;11.97;;;;;;;;;;5093293;28;20459;-65
2022/07/30 02:56:17;;;;;;;13.20;11.90;;;;;;;;;;5093169;28;20444;-65
2022/07/30 02:58:45;;;;;;;14.10;12.20;;;;;;;;;;5093395;28;20536;-65
2022/07/30 03:01:14;;;;;;;15.93;13.00;;;;;;;;;;5093476;28;20863;-65
2022/07/30 03:03:43;;;;;;;19.27;12.90;;;;;;;;;;5093289;28;20794;-65
2022/07/30 03:06:11;;;;;;;13.37;12.13;;;;;;;;;;5093875;28;20486;-64
2022/07/30 03:08:40;;;;;;;15.23;13.90;;;;;;;;;;5092958;28;20450;-65
2022/07/30 03:11:08;;;;;;;17.30;11.90;;;;;;;;;;5093378;28;20534;-65
2022/07/30 03:13:36;;;;;;;13.87;12.47;;;;;;;;;;5093269;28;20450;-65
2022/07/30 03:16:04;;;;;;;13.90;12.53;;;;;;;;;;5093040;28;20881;-65
2022/07/30 03:18:33;;;;;;;16.00;13.40;;;;;;;;;;5092922;28;20441;-65
2022/07/30 03:21:01;;;;;;;17.33;13.37;;;;;;;;;;5093249;28;20477;-65
2022/07/30 03:23:29;;;;;;;15.00;13.37;;;;;;;;;;5092953;28;20856;-64
2022/07/30 03:26:01;;;;;;;14.63;13.03;;;;;;;;;;5093151;28;20471;-65
2022/07/30 03:28:29;;;;;;;16.00;12.70;;;;;;;;;;5093053;28;20924;-64
2022/07/30 03:30:56;;;;;;;17.83;13.27;;;;;;;;;;5093103;28;20441;-64
2022/07/30 03:33:24;;;;;;;14.40;13.00;;;;;;;;;;5092860;28;20442;-65
2022/07/30 03:35:52;;;;;;;14.10;12.47;;;;;;;;;;5092857;28;20451;-64
2022/07/30 03:38:20;;;;;;;17.40;13.10;;;;;;;;;;5093126;28;20438;-65
2022/07/30 03:40:47;;;;;;;13.13;11.83;;;;;;;;;;5095923;28;20443;-65
2022/07/30 03:43:16;;;;;;;14.90;13.40;;;;;;;;;;5097111;28;20553;-65
2022/07/30 03:45:45;;;;;;;14.03;12.33;;;;;;;;;;5096674;28;20485;-65
2022/07/30 03:48:13;;;;;;;15.00;13.10;;;;;;;;;;5095861;28;20926;-66
2022/07/30 03:50:41;;;;;;;15.47;13.63;;;;;;;;;;5096016;28;20451;-65
2022/07/30 03:53:10;;;;;;;14.40;13.00;;;;;;;;;;5095443;28;20446;-64
2022/07/30 03:55:37;;;;;;;16.20;14.63;;;;;;;;;;5096027;28;20454;-65
2022/07/30 03:58:04;;;;;;;13.80;12.50;;;;;;;;;;5096255;28;20527;-65
2022/07/30 04:00:33;;;;;;;13.77;12.47;;;;;;;;;;5095966;28;20851;-64
2022/07/30 04:03:00;;;;;;;14.80;13.27;;;;;;;;;;5096652;28;20543;-65
2022/07/30 04:05:27;;;;;;;14.40;13.10;;;;;;;;;;5096017;28;20556;-65
2022/07/30 04:07:55;;;;;;;15.13;13.53;;;;;;;;;;5096060;28;20520;-65
2022/07/30 04:10:22;;;;;;;16.40;12.90;;;;;;;;;;5096287;28;20863;-64
2022/07/30 04:12:49;;;;;;;15.40;13.73;;;;;;;;;;5095998;28;20442;-64
2022/07/30 04:15:16;;;;;;;14.23;12.73;;;;;;;;;;5095857;28;20460;-65
2022/07/30 04:17:47;;;;;;;14.37;12.90;;;;;;;;;;5096399;28;20475;-65
2022/07/30 04:20:16;;;;;;;13.63;12.27;;;;;;;;;;5096009;28;20443;-65
2022/07/30 04:22:43;;;;;;;16.43;13.37;;;;;;;;;;5096183;28;20523;-64
2022/07/30 04:25:10;;;;;;;14.00;12.60;;;;;;;;;;5095268;28;20490;-65
2022/07/30 04:27:38;;;;;;;15.37;13.87;;;;;;;;;;5096046;28;20439;-65
2022/07/30 04:30:06;;;;;;;14.20;12.77;;;;;;;;;;5096378;28;20459;-65
2022/07/30 04:32:33;;;;;;;15.63;13.87;;;;;;;;;;5095715;28;21007;-65
2022/07/30 04:35:03;;;;;;;16.53;13.27;;;;;;;;;;5095815;28;20535;-65
2022/07/30 04:37:30;;;;;;;13.87;12.60;;;;;;;;;;5095992;28;20460;-64
2022/07/30 04:39:57;;;;;;;14.00;12.70;;;;;;;;;;5095652;28;20500;-65
2022/07/30 04:42:25;;;;;;;17.73;13.63;;;;;;;;;;5095782;28;20528;-65
2022/07/30 04:44:52;;;;;;;14.10;12.70;;;;;;;;;;5095498;28;20559;-65
2022/07/30 04:47:20;;;;;;;15.20;12.57;;;;;;;;;;5095695;28;20976;-65
2022/07/30 04:49:48;;;;;;;14.53;13.13;;;;;;;;;;5095405;28;20530;-65
2022/07/30 04:52:17;;;;;;;14.70;13.23;;;;;;;;;;5094775;28;20486;-65
2022/07/30 04:54:45;;;;;;;14.33;12.60;;;;;;;;;;5095576;28;20473;-65
2022/07/30 04:57:13;;;;;;;13.53;12.10;;;;;;;;;;5095547;28;20439;-65
2022/07/30 04:59:41;;;;;;;15.10;13.60;;;;;;;;;;5095298;28;20530;-65
2022/07/30 05:02:09;;;;;;;20.03;12.73;;;;;;;;;;5095319;28;20437;-64
2022/07/30 05:04:36;;;;;;;13.60;12.30;;;;;;;;;;5095661;28;20516;-65
2022/07/30 05:07:04;;;;;;;13.70;12.40;;;;;;;;;;5095706;28;20441;-65
2022/07/30 05:09:33;;;;;;;14.40;12.40;;;;;;;;;;5095136;28;20523;-64
2022/07/30 05:12:00;;;;;;;17.40;13.07;;;;;;;;;;5095053;28;20437;-64
2022/07/30 05:14:27;;;;;;;15.30;11.93;;;;;;;;;;5094804;28;20527;-64
2022/07/30 05:16:55;;;;;;;18.13;13.00;;;;;;;;;;5094976;28;20963;-64
2022/07/30 05:19:22;;;;;;;16.43;13.17;;;;;;;;;;5094887;28;20523;-65
2022/07/30 05:21:50;;;;;;;16.10;11.03;;;;;;;;;;5094811;28;20447;-65
2022/07/30 05:24:17;;;;;;;12.90;11.60;;;;;;;;;;5095021;28;20870;-64
2022/07/30 05:26:45;;;;;;;12.77;11.63;;;;;;;;;;5094660;28;20469;-64
2022/07/30 05:29:13;;;;;;;13.47;12.07;;;;;;;;;;5094820;28;20525;-65
2022/07/30 05:31:40;;;;;;;16.93;13.17;;;;;;;;;;5094807;28;20541;-65
2022/07/30 05:34:07;;;;;;;13.27;11.30;;;;;;;;;;5094825;28;20852;-65
2022/07/30 05:36:35;;;;;;;21.07;12.17;;;;;;;;;;5094258;28;20982;-65
2022/07/30 05:39:02;;;;;;;12.27;11.17;;;;;;;;;;5094616;28;20428;-65
2022/07/30 05:41:29;;;;;;;14.13;12.63;;;;;;;;;;5094462;28;20541;-64
2022/07/30 05:43:58;;;;;;;14.73;12.60;;;;;;;;;;5094554;28;20446;-65
2022/07/30 05:46:25;;;;;;;14.23;12.90;;;;;;;;;;5094321;28;20503;-64
2022/07/30 05:48:53;;;;;;;17.40;12.07;;;;;;;;;;5094229;28;20452;-65
2022/07/30 05:51:20;;;;;;;15.83;12.87;;;;;;;;;;5094297;28;20555;-65
2022/07/30 05:53:48;;;;;;;15.60;12.00;;;;;;;;;;5094173;28;20454;-64
2022/07/30 05:56:15;;;;;;;14.03;12.43;;;;;;;;;;5094492;28;20452;-65
2022/07/30 05:58:42;;;;;;;17.73;12.83;;;;;;;;;;5094351;28;20452;-64
2022/07/30 06:01:11;;;;;;;13.90;12.60;;;;;;;;;;5094744;28;20493;-65
2022/07/30 06:03:38;;;;;;;17.43;12.57;;;;;;;;;;5093890;28;20442;-64
2022/07/30 06:06:05;;;;;;;15.63;13.67;;;;;;;;;;5093707;28;20562;-65
2022/07/30 06:08:32;;;;;;;16.80;12.47;;;;;;;;;;5094119;28;20467;-65
2022/07/30 06:11:00;;;;;;;15.90;12.40;;;;;;;;;;5094005;28;20522;-65
2022/07/30 06:13:27;;;;;;;14.00;12.60;;;;;;;;;;5094060;28;20524;-64
2022/07/30 06:15:54;;;;;;;13.87;12.17;;;;;;;;;;5094175;28;20904;-65
2022/07/30 06:18:23;;;;;;;13.17;12.07;;;;;;;;;;5094106;28;20438;-65
2022/07/30 06:20:50;;;;;;;13.10;11.70;;;;;;;;;;5093775;28;21033;-65
2022/07/30 06:23:18;;;;;;;15.40;12.97;;;;;;;;;;5093775;28;20440;-65
2022/07/30 06:25:45;;;;;;;14.57;13.20;;;;;;;;;;5094005;28;20571;-65
2022/07/30 06:28:12;;;;;;;13.73;12.10;;;;;;;;;;5093548;28;20527;-65
2022/07/30 06:30:39;;;;;;;13.47;12.00;;;;;;;;;;5093832;28;20527;-65
2022/07/30 06:33:07;;;;;;;14.37;12.87;;;;;;;;;;5093758;28;20444;-65
2022/07/30 06:35:35;;;;;;;14.87;13.37;;;;;;;;;;5093570;28;20545;-66
2022/07/30 06:38:03;;;;;;;14.23;12.83;;;;;;;;;;5093400;28;20536;-65
2022/07/30 06:40:30;;;;;;;15.00;12.20;;;;;;;;;;5093320;28;21024;-65
2022/07/30 06:42:57;;;;;;;17.33;13.17;;;;;;;;;;5093625;28;20872;-65
2022/07/30 06:45:24;;;;;;;17.90;14.37;;;;;;;;;;5093613;28;20572;-65
2022/07/30 06:47:52;;;;;;;16.17;13.40;;;;;;;;;;5093575;28;20447;-64
2022/07/30 06:50:19;;;;;;;14.43;12.77;;;;;;;;;;5094111;28;20514;-65
2022/07/30 06:52:47;;;;;;;13.67;12.47;;;;;;;;;;5093284;28;20449;-65
2022/07/30 06:55:15;;;;;;;16.03;14.37;;;;;;;;;;5094011;28;20461;-65
2022/07/30 06:57:42;;;;;;;15.33;13.60;;;;;;;;;;5093143;28;20534;-65
2022/07/30 07:00:09;;;;;;;17.60;14.20;;;;;;;;;;5093247;28;20447;-65
2022/07/30 07:02:38;;;;;;;24.90;14.17;;;;;;;;;;5093558;28;20447;-65
2022/07/30 07:05:06;;;;;;;16.03;14.43;;;;;;;;;;5093412;28;20448;-65
2022/07/30 07:07:33;;;;;;;16.03;14.53;;;;;;;;;;5093368;28;20441;-64
2022/07/30 07:10:02;;;;;;;16.87;14.37;;;;;;;;;;5093544;28;20446;-65
2022/07/30 07:12:29;;;;;;;16.60;14.87;;;;;;;;;;5093648;28;20493;-65
2022/07/30 07:14:56;;;;;;;15.67;13.97;;;;;;;;;;5094978;28;20453;-66
2022/07/30 07:17:23;;;;;;;24.90;14.67;;;;;;;;;;5096870;28;20476;-65
2022/07/30 07:19:51;;;;;;;14.60;13.20;;;;;;;;;;5097332;28;20438;-65
2022/07/30 07:22:18;;;;;;;18.60;14.30;;;;;;;;;;5096868;28;20536;-65
2022/07/30 07:24:45;;;;;;;18.37;14.03;;;;;;;;;;5097295;28;20488;-65
2022/07/30 07:27:14;;;;;;;21.47;14.90;;;;;;;;;;5096804;28;20989;-65
2022/07/30 07:29:41;;;;;;;15.70;14.30;;;;;;;;;;5097614;28;20442;-65
2022/07/30 07:32:09;;;;;;;16.33;13.53;;;;;;;;;;5097304;28;20446;-65
2022/07/30 07:34:36;;;;;;;14.27;12.77;;;;;;;;;;5096724;28;20456;-65
2022/07/30 07:37:03;;;;;;;13.57;12.07;;;;;;;;;;5097210;28;20528;-65
2022/07/30 07:39:30;;;;;;;13.90;12.50;;;;;;;;;;5096140;28;21000;-66
2022/07/30 07:41:57;;;;;;;15.30;13.27;;;;;;;;;;5096918;28;20532;-65
2022/07/30 07:44:26;;;;;;;16.70;13.00;;;;;;;;;;5096614;28;21018;-65
2022/07/30 07:46:53;;;;;;;16.13;14.40;;;;;;;;;;5096891;28;20482;-65
2022/07/30 07:49:20;;;;;;;16.67;14.97;;;;;;;;;;5097461;28;20445;-66
2022/07/30 07:51:47;;;;;;;17.20;13.70;;;;;;;;;;5096264;28;20450;-66
2022/07/30 07:54:15;;;;;;;12.97;11.73;;;;;;;;;;5096480;28;20532;-65
2022/07/30 07:56:42;;;;;;;17.80;13.90;;;;;;;;;;5096743;28;20453;-65
2022/07/30 07:59:09;;;;;;;19.40;14.67;;;;;;;;;;5096569;28;20445;-65
2022/07/30 08:01:38;;;;;;;17.00;15.20;;;;;;;;;;5096737;28;20523;-65
2022/07/30 08:04:05;;;;;;;16.43;14.80;;;;;;;;;;5096166;28;20517;-65
2022/07/30 08:06:32;;;;;;;16.07;13.73;;;;;;;;;;5096037;28;20484;-65
2022/07/30 08:09:00;;;;;;;13.87;12.27;;;;;;;;;;5096270;28;20471;-64
2022/07/30 08:11:28;;;;;;;15.97;11.60;;;;;;;;;;5096210;28;20521;-64
2022/07/30 08:13:55;;;;;;;14.53;13.20;;;;;;;;;;5096308;28;20854;-66
2022/07/30 08:16:22;;;;;;;14.27;12.87;;;;;;;;;;5095917;28;20488;-65
2022/07/30 08:18:51;;;;;;;13.47;12.20;;;;;;;;;;5096175;28;20529;-64
2022/07/30 08:21:18;;;;;;;13.93;12.53;;;;;;;;;;5096556;28;20523;-65
2022/07/30 08:23:45;;;;;;;13.60;12.30;;;;;;;;;;5096149;28;20503;-65
2022/07/30 08:26:12;;;;;;;13.60;12.30;;;;;;;;;;5094784;28;20544;-65
2022/07/30 08:28:41;;;;;;;13.10;11.70;;;;;;;;;;5095637;28;20971;-65
2022/07/30 08:31:09;;;;;;;14.53;12.00;;;;;;;;;;5095718;28;20445;-65
2022/07/30 08:33:36;;;;;;;14.20;12.63;;;;;;;;;;5095497;28;20469;-65
2022/07/30 08:36:04;;;;;;;14.27;12.97;;;;;;;;;;5095596;28;20532;-64
2022/07/30 08:38:32;;;;;;;14.07;12.67;;;;;;;;;;5096024;28;20883;-64
2022/07/30 08:40:59;;;;;;;12.27;11.17;;;;;;;;;;5095942;28;20436;-65
2022/07/30 08:43:26;;;;;;;14.10;12.60;;;;;;;;;;5095920;28;20799;-64
2022/07/30 08:45:53;;;;;;;13.13;11.90;;;;;;;;;;5095680;28;20478;-65
2022/07/30 08:48:21;;;;;;;13.27;11.40;;;;;;;;;;5095288;28;21004;-65
2022/07/30 08:50:49;;;;;;;12.87;11.57;;;;;;;;;;5095301;28;20438;-65
2022/07/30 08:53:18;;;;;;;13.07;11.83;;;;;;;;;;5096047;28;20523;-65
2022/07/30 08:55:45;;;;;;;13.10;10.27;;;;;;;;;;5095502;28;20441;-65
2022/07/30 08:58:18;;;;;;;15.60;12.27;;;;;;;;;;5095121;28;21058;-65
2022/07/30 09:00:45;;;;;;;14.60;12.20;;;;;;;;;;5095188;28;20517;-64
2022/07/30 09:03:12;;;;;;;12.23;11.00;;;;;;;;;;5095473;28;20529;-64
2022/07/30 09:05:40;;;;;;;16.93;11.73;;;;;;;;;;5095281;28;20854;-64
2022/07/30 09:08:07;;;;;;;12.87;11.67;;;;;;;;;;5095139;28;20478;-65
2022/07/30 09:10:36;;;;;;;12.20;11.00;;;;;;;;;;5095215;28;20530;-65
2022/07/30 09:13:03;;;;;;;12.13;10.90;;;;;;;;;;5095050;28;20525;-65
2022/07/30 09:15:30;;;;;;;11.20;10.10;;;;;;;;;;5094612;28;20534;-64
2022/07/30 09:17:59;;;;;;;12.47;11.17;;;;;;;;;;5094826;28;20435;-65
2022/07/30 09:20:27;;;;;;;11.43;10.40;;;;;;;;;;5094761;28;20931;-65
2022/07/30 09:22:55;;;;;;;13.60;10.73;;;;;;;;;;5094809;28;20448;-65
2022/07/30 09:25:37;;;;;;;13.47;10.67;;;;;;;;;;5095031;28;20456;-65
2022/07/30 09:28:05;;;;;;;10.23;8.77;;;;;;;;;;5094743;28;20472;-65
2022/07/30 09:30:44;;;;;;;12.23;10.50;;;;;;;;;;5094774;28;20924;-65
2022/07/30 09:33:12;;;;;;;10.73;9.70;;;;;;;;;;5094678;28;20432;-65
2022/07/30 09:35:40;;;;;;;11.57;10.40;;;;;;;;;;5094653;28;20876;-65
2022/07/30 09:38:07;;;;;;;11.60;10.40;;;;;;;;;;5094327;28;20482;-68
2022/07/30 09:40:36;;;;;;;11.80;10.60;;;;;;;;;;5094504;28;20537;-66
2022/07/30 09:43:07;;;;;;;14.20;10.00;;;;;;;;;;5094247;28;20526;-65
2022/07/30 09:45:34;;;;;;;13.77;12.37;;;;;;;;;;5094168;28;20416;-65
2022/07/30 09:48:02;;;;;;;12.33;11.00;;;;;;;;;;5094301;28;20513;-66
2022/07/30 09:50:30;;;;;;;17.37;11.10;;;;;;;;;;5094080;28;20471;-66
2022/07/30 09:53:06;;;;;;;13.60;12.20;;;;;;;;;;5094919;28;20526;-65
2022/07/30 09:55:34;;;;;;;12.23;11.00;;;;;;;;;;5094370;28;20514;-65
2022/07/30 09:58:04;;;;;;;11.43;10.37;;;;;;;;;;5094032;28;20541;-65
2022/07/30 10:00:32;;;;;;;11.60;9.90;;;;;;;;;;5093799;28;20533;-65
2022/07/30 10:03:00;;;;;;;13.83;10.80;;;;;;;;;;5093836;28;20943;-65
2022/07/30 10:05:28;;;;;;;12.23;10.83;;;;;;;;;;5093816;28;20932;-65
2022/07/30 10:07:56;;;;;;;12.40;10.97;;;;;;;;;;5094385;28;20585;-65
2022/07/30 10:10:24;;;;;;;13.30;10.10;;;;;;;;;;5094121;28;20489;-65
2022/07/30 10:12:53;;;;;;;12.97;9.70;;;;;;;;;;5094600;28;20550;-65
2022/07/30 10:15:24;;;;;;;12.33;11.13;;;;;;;;;;5093500;28;20948;-65
2022/07/30 10:17:52;;;;;;;12.67;11.30;;;;;;;;;;5094538;28;20471;-65
2022/07/30 10:20:19;;;;;;;14.47;11.43;;;;;;;;;;5093808;28;20501;-66
2022/07/30 10:22:46;;;;;;;12.80;11.40;;;;;;;;;;5093801;28;20522;-66
2022/07/30 10:25:14;;;;;;;12.03;10.90;;;;;;;;;;5093879;28;20538;-65
2022/07/30 10:27:41;;;;;;;14.40;11.10;;;;;;;;;;5093841;28;20500;-65
2022/07/30 10:30:08;;;;;;;10.90;9.87;;;;;;;;;;5093418;28;20450;-64
2022/07/30 10:32:38;;;;;;;10.30;9.20;;;;;;;;;;5093804;28;20522;-68
2022/07/30 10:35:06;;;;;;;10.97;9.57;;;;;;;;;;5093430;28;20444;-65
2022/07/30 10:37:34;;;;;;;11.10;10.10;;;;;;;;;;5093669;28;20451;-65
2022/07/30 10:40:06;;;;;;;13.50;10.47;;;;;;;;;;5093352;28;20533;-65
2022/07/30 10:42:51;;;;;;;10.53;9.50;;;;;;;;;;5093361;28;20435;-65
2022/07/30 10:45:21;;;;;;;8.47;7.67;;;;;;;;;;5093266;28;20528;-65
2022/07/30 10:47:50;;;;;;;9.27;7.87;;;;;;;;;;5093218;28;20473;-65
2022/07/30 10:50:18;;;;;;;12.77;9.00;;;;;;;;;;5092703;28;20551;-65
2022/07/30 10:52:49;;;;;;;9.67;8.07;;;;;;;;;;5093264;28;20447;-65
2022/07/30 10:55:17;;;;;;;13.70;9.70;;;;;;;;;;5093413;28;20468;-65
2022/07/30 10:58:04;;;;;;;12.43;10.30;;;;;;;;;;5093498;28;20531;-65
2022/07/30 11:00:32;;;;;;;12.10;8.33;;;;;;;;;;5093432;28;20436;-65
2022/07/30 11:03:15;;;;;;;9.77;8.10;;;;;;;;;;5093475;28;20527;-65
2022/07/30 11:05:42;;;;;;;7.23;6.50;;;;;;;;;;5092986;28;20455;-65
2022/07/30 11:08:28;;;;;;;6.73;5.53;;;;;;;;;;5093431;28;20478;-64
2022/07/30 11:10:55;;;;;;;9.03;6.90;;;;;;;;;;5093211;28;20475;-65
2022/07/30 11:13:49;;;;;;;9.80;6.90;;;;;;;;;;5093333;28;20528;-64
2022/07/30 11:16:18;;;;;;;11.73;6.43;;;;;;;;;;5092888;28;20466;-65
2022/07/30 11:19:00;;;;;;;7.33;6.33;;;;;;;;;;5093298;28;20548;-65
2022/07/30 11:21:30;;;;;;;8.17;6.50;;;;;;;;;;5093030;28;20511;-65
2022/07/30 11:23:58;;;;;;;8.23;6.30;;;;;;;;;;5093058;28;20504;-65
2022/07/30 11:26:45;;;;;;;5.13;4.73;;;;;;;;;;5092667;28;20527;-65
2022/07/30 11:29:33;;;;;;;8.27;5.83;;;;;;;;;;5093681;28;20478;-65
2022/07/30 11:32:24;;;;;;;7.33;5.47;;;;;;;;;;5092929;28;20965;-65
2022/07/30 11:34:51;;;;;;;8.73;6.80;;;;;;;;;;5093064;28;20450;-65
2022/07/30 11:37:20;;;;;;;7.80;6.10;;;;;;;;;;5093102;28;20537;-65
2022/07/30 11:40:05;;;;;;;9.40;6.93;;;;;;;;;;5093110;28;20443;-65
2022/07/30 11:42:33;;;;;;;9.43;6.67;;;;;;;;;;5093017;28;20438;-65
2022/07/30 11:45:15;;;;;;;8.40;6.33;;;;;;;;;;5093050;28;20449;-65
2022/07/30 11:47:43;;;;;;;7.47;6.80;;;;;;;;;;5092783;28;20484;-65
2022/07/30 11:50:17;;;;;;;10.17;6.40;;;;;;;;;;5092604;28;20445;-66
2022/07/30 11:52:49;;;;;;;6.53;5.90;;;;;;;;;;5093102;28;20425;-65
2022/07/30 11:55:23;;;;;;;8.20;6.00;;;;;;;;;;5092519;28;20448;-65
2022/07/30 11:57:50;;;;;;;7.00;6.37;;;;;;;;;;5092726;28;20941;-65
2022/07/30 12:00:18;;;;;;;11.43;6.20;;;;;;;;;;5093433;28;20537;-65
2022/07/30 12:02:48;;;;;;;9.90;4.97;;;;;;;;;;5096500;28;20469;-65
2022/07/30 12:05:16;;;;;;;5.70;4.80;;;;;;;;;;5096196;28;20435;-64
2022/07/30 12:07:43;;;;;;;8.13;5.47;;;;;;;;;;5096243;28;20481;-65
2022/07/30 12:10:16;;;;;;;5.10;4.60;;;;;;;;;;5096064;28;20531;-64
2022/07/30 12:12:43;;;;;;;9.17;5.53;;;;;;;;;;5096177;28;20525;-65
2022/07/30 12:15:11;;;;;;;7.33;5.30;;;;;;;;;;5096220;28;20990;-65
2022/07/30 12:17:42;;;;;;;5.70;5.20;;;;;;;;;;5096087;28;20484;-65
2022/07/30 12:20:16;;;;;;;5.50;4.97;;;;;;;;;;5096434;28;20439;-65
2022/07/30 12:22:43;;;;;;;5.33;4.90;;;;;;;;;;5096123;28;20984;-65
2022/07/30 12:25:11;;;;;;;6.20;5.37;;;;;;;;;;5096136;28;20540;-65
2022/07/30 12:27:39;;;;;;;6.03;4.50;;;;;;;;;;5095974;28;20563;-65
2022/07/30 12:30:08;;;;;;;8.00;4.80;;;;;;;;;;5096130;28;20440;-65
2022/07/30 12:32:36;;;;;;;7.83;4.47;;;;;;;;;;5095728;28;20465;-65
2022/07/30 12:35:04;;;;;;;7.40;5.10;;;;;;;;;;5095528;28;20437;-65
2022/07/30 12:37:31;;;;;;;7.17;5.57;;;;;;;;;;5095728;28;20840;-65
2022/07/30 12:40:09;;;;;;;8.87;5.10;;;;;;;;;;5095769;28;20472;-65
2022/07/30 12:42:37;;;;;;;5.10;4.60;;;;;;;;;;5095315;28;20501;-65
2022/07/30 12:45:06;;;;;;;8.63;4.87;;;;;;;;;;5095650;28;20485;-65
2022/07/30 12:47:34;;;;;;;5.90;4.50;;;;;;;;;;5095327;28;20480;-65
2022/07/30 12:50:05;;;;;;;5.30;4.90;;;;;;;;;;5095505;28;20462;-65
2022/07/30 12:52:33;;;;;;;4.73;4.37;;;;;;;;;;5095404;28;20479;-65
2022/07/30 12:55:01;;;;;;;9.10;5.00;;;;;;;;;;5095642;28;20536;-65
2022/07/30 12:57:28;;;;;;;6.07;3.90;;;;;;;;;;5094990;28;20927;-65
2022/07/30 13:00:02;;;;;;;5.10;3.80;;;;;;;;;;5095612;28;20479;-64
2022/07/30 13:02:35;;;;;;;3.50;3.30;;;;;;;;;;5095194;28;20440;-65
2022/07/30 13:05:03;;;;;;;5.47;3.60;;;;;;;;;;5094881;28;20457;-65
2022/07/30 13:07:31;;;;;;;3.60;3.30;;;;;;;;;;5095053;28;20513;-65
2022/07/30 13:10:08;;;;;;;5.63;3.40;;;;;;;;;;5094749;28;20442;-65
2022/07/30 13:12:35;;;;;;;3.53;3.33;;;;;;;;;;5094468;28;20442;-65
2022/07/30 13:15:02;;;;;;;3.80;3.47;;;;;;;;;;5095530;28;20528;-65
2022/07/30 13:17:29;;;;;;;6.20;3.90;;;;;;;;;;5094720;28;20564;-64
2022/07/30 13:19:59;;;;;;;5.17;3.53;;;;;;;;;;5094886;28;20460;-63
2022/07/30 13:22:26;;;;;;;5.07;3.40;;;;;;;;;;5095408;28;20445;-66
2022/07/30 13:24:54;;;;;;;4.53;3.10;;;;;;;;;;5094478;28;20448;-66
2022/07/30 13:27:21;;;;;;;4.10;2.90;;;;;;;;;;5094318;28;21004;-65
2022/07/30 13:29:48;;;;;;;8.90;3.70;;;;;;;;;;5093843;28;20525;-65
2022/07/30 13:32:15;;;;;;;2.63;2.43;;;;;;;;;;5094330;28;20524;-65
2022/07/30 13:34:42;;;;;;;6.67;3.00;;;;;;;;;;5094282;28;20989;-65
2022/07/30 13:37:11;;;;;;;3.40;2.90;;;;;;;;;;5094460;28;20471;-65
2022/07/30 13:39:38;;;;;;;5.57;2.87;;;;;;;;;;5094138;28;20435;-65
2022/07/30 13:42:05;;;;;;;3.47;2.77;;;;;;;;;;5094377;28;20553;-65
2022/07/30 13:44:33;;;;;;;3.60;2.80;;;;;;;;;;5094517;28;20434;-65
2022/07/30 13:47:00;;;;;;;6.50;3.07;;;;;;;;;;5094301;28;20437;-66
2022/07/30 13:49:27;;;;;;;4.00;2.57;;;;;;;;;;5094144;28;20838;-65
2022/07/30 13:51:54;;;;;;;3.90;2.80;;;;;;;;;;5094154;28;20527;-65
2022/07/30 13:54:23;;;;;;;8.67;3.13;;;;;;;;;;5094204;28;20489;-65
2022/07/30 13:56:50;;;;;;;4.73;2.57;;;;;;;;;;5093842;28;20538;-65
2022/07/30 13:59:17;;;;;;;5.77;2.50;;;;;;;;;;5094084;28;20844;-65
2022/07/30 14:01:44;;;;;;;3.30;2.50;;;;;;;;;;5093749;28;20833;-65
2022/07/30 14:04:12;;;;;;;3.43;3.03;;;;;;;;;;5093798;28;20533;-65
2022/07/30 14:06:39;;;;;;;3.20;2.57;;;;;;;;;;5094233;28;20479;-66
2022/07/30 14:09:06;;;;;;;5.73;3.20;;;;;;;;;;5093967;28;20909;-66
2022/07/30 14:11:37;;;;;;;8.33;2.70;;;;;;;;;;5094371;28;20848;-67
2022/07/30 14:14:04;;;;;;;3.30;2.67;;;;;;;;;;5093445;28;20434;-65
2022/07/30 14:16:32;;;;;;;5.00;2.90;;;;;;;;;;5093886;28;20448;-67
2022/07/30 14:18:59;;;;;;;3.83;2.50;;;;;;;;;;5093912;28;20446;-66
2022/07/30 14:21:26;;;;;;;5.40;2.77;;;;;;;;;;5093598;28;20424;-66
2022/07/30 14:23:53;;;;;;;4.40;2.40;;;;;;;;;;5092807;28;20455;-65
2022/07/30 14:26:21;;;;;;;4.40;2.47;;;;;;;;;;5093278;28;20528;-65
2022/07/30 14:28:49;;;;;;;3.43;2.33;;;;;;;;;;5093233;28;20474;-65
2022/07/30 14:31:17;;;;;;;4.70;2.47;;;;;;;;;;5093456;28;20442;-65
2022/07/30 14:33:44;;;;;;;3.00;2.27;;;;;;;;;;5093515;28;20496;-65
2022/07/30 14:36:11;;;;;;;5.30;2.50;;;;;;;;;;5093177;28;20507;-66
2022/07/30 14:38:38;;;;;;;4.70;2.70;;;;;;;;;;5093366;28;20501;-65